NWS Home NWS Lubbock West Texas Mesonet                      Daily Summary For 05/11/2021

Latest   N   C   S   Daily Sum   3hrΔ   24hrΔ   Soil Data 
Site Map   24hr Precip   72hr Precip   Google Plot


Station Time of Last Max Temp Min Temp Max/Min Dew Pt. Max/Min RH 10m Avg Wind 2m Avg Wind Peak Gust @ 33ft (mph) Potential Evapotranspiration
mm/day or in/day
Rain Sum Solar Rad
MJ/m^2
% Clear Day Red Flag
Abernathy 5ENE 07:50 PM 53 49 51 /46 98 / 80 13.6  (E) 10.6 28.5 mph 114° @ 1224 AM 0.8 or 0.03 0.03 5.3 39.3 0
Adrian 6WSW 07:50 PM 49 43 46 /41 100 / 74 14.4  (E) 11.8 24.8 mph 120° @ 0156 AM 0.8 or 0.03 0.01 8.4 64.7 0
Aiken 3WSW 07:50 PM 53 47 51 /46 99 / 80 15.3  (E) 11.5 23.4 mph 52° @ 1122 AM 0.8 or 0.03 0.08 5 37.1 0
Amarillo 15NNW 07:50 PM 51 45 47 /39 98 / 67 13.6  (E) 11 28.7 mph 42° @ 0204 PM 1 or 0.04 0.01 5.8 45.1 0
Amarillo 7SSE 07:50 PM 50 45 49 /44 100 / 85 13.3  (E) 10.1 24.9 mph 95° @ 1203 AM 0.5 or 0.02 0.03 4.4 33.5 0
Amarillo 9NNE 07:50 PM 51 45 48 /41 99 / 74 11.9  (E) 9.5 22.2 mph 95° @ 1206 AM 0.8 or 0.03 0.05 4.7 36.6 0
Amherst 1NE 07:50 PM 55 49 51 /45 99 / 74 14  (E) 11.1 30.7 mph 101° @ 1207 AM 1 or 0.04 0.01 6.7 49.4 0
Andrews 2E 07:50 PM 67 54 56 /51 100 / 64 10.9  (E) 6.3 26.3 mph 48° @ 0742 PM 1.8 or 0.07 0.00 9.8 68.7 0
Anton 6SSW 07:50 PM 54 50 50 /45 99 / 77 15  (E) 12.2 28.7 mph 107° @ 1245 AM 1 or 0.04 0.01 5.8 42.5 0
Aspermont 3NE 07:50 PM 58 53 54 /51 99 / 80 8.5  (E) 5.6 23 mph 68° @ 1000 AM 0.8 or 0.03 0.57 5 36.3 0
Big Bend NP - Castolon 07:50 PM 102 73 63 /19 68 / 6 8.1  (W) 6.6 24.1 mph 121° @ 0441 AM 4.8 or 0.19 0.00 29.2 186.6 0
Big Bend NP - Persimmon Gap 07:50 PM 97 67 63 /27 82 / 9 11.9  (NE) 9.8 36.2 mph 28° @ 0729 PM 5.8 or 0.23 0.00 26 167.7 0
Big Lake 1WNW 07:50 PM 70 56 58 /54 100 / 65 9.3  (E) 7.5 22.6 mph 48° @ 0328 PM 2 or 0.08 0.00 14 95 0
Bootleg 11WNW 07:50 PM 49 44 48 /44 100 / 89 13.5  (E) 10.7 27.8 mph 103° @ 1208 AM 0.5 or 0.02 0.06 5.1 39 0
Borger 7E 07:50 PM 51 45 47 /39 98 / 66 12.8  (E) 9.7 25.2 mph 48° @ 1220 PM 1 or 0.04 0.01 6.2 48.7 0
Boys Ranch 1WSW 07:50 PM 52 45 48 /38 100 / 69 11.3  (E) 9.5 23.2 mph 105° @ 1234 AM 1 or 0.04 0.00 6.4 50.5 0
Brownfield 2S 07:50 PM 55 52 54 /47 99 / 81 13.4  (E) 10.9 25.2 mph 51° @ 0750 PM 0.8 or 0.03 0.37 6.6 47.4 0
Canadian 6E 07:50 PM 55 45 50 /40 100 / 60 12.6  (NE) 9.5 25.9 mph 40° @ 1221 PM 1 or 0.04 0.05 7.7 61.4 0
Caprock Canyons State Park 07:50 PM 53 46 50 /46 99 / 77 8.3  (E) 5.5 21.3 mph 59° @ 0835 AM 0.8 or 0.03 0.10 3.9 29.5 0
Childress 2NNE 07:50 PM 57 48 52 /47 100 / 73 11.9  (E) 8.5 28.5 mph 39° @ 0910 AM 1 or 0.04 0.13 4.4 33.8 0
Clarendon 2WSW 07:50 PM 52 46 48 /44 96 / 77 14  (E) 10.4 25.4 mph 34° @ 0235 PM 0.8 or 0.03 0.06 5.2 39.9 0
Claude 12SW 07:50 PM 50 45 49 /43 100 / 82 13.9  (E) 10.4 22.7 mph 45° @ 0715 AM 0.5 or 0.02 0.07 6 45.9 0
Clyde 2WNW 07:50 PM 64 52 59 /52 100 / 80 10.1  (E) 7.3 27.7 mph 105° @ 1200 PM 1.3 or 0.05 0.51 8.5 59.9 0
Colorado City 5NW 07:50 PM 62 54 55 /50 99 / 74 10.9  (E) 7.4 24.9 mph 79° @ 0905 AM 1.3 or 0.05 0.01 8.3 58.5 0
Comanche Springs 07:50 PM 58 50 54 /49 98 / 76 9.7  (E) 7.4 34 mph 74° @ 0932 AM 0.8 or 0.03 0.31 4.4 32.7 0
Coyanosa 2N 07:50 PM 84 62 58 /48 81 / 30 10.9  (NE) 7.8 30.7 mph 63° @ 0711 PM 4.1 or 0.16 0.00 28.8 195.5 0
Crane 1NNW 07:50 PM 76 60 58 /55 84 / 53 13.5  (E) 11.6 30.2 mph 71° @ 0705 PM 3.3 or 0.13 0.00 22.5 153.6 0
Crowell 1E 07:50 PM 59 51 55 /50 99 / 79 12.7  (E) 9.8 31.9 mph 106° @ 0959 AM 1 or 0.04 0.44 4.4 33.1 0
Dell City 07:50 PM 89 55 50 /20 74 / 8 7  (SE) 4.3 37.6 mph 270° @ 0355 AM 3 or 0.12 0.00 29.7 204.7 0
Denver City 7WNW 07:50 PM 58 52 53 /47 100 / 82 12.3  (SE) 9.1 26.5 mph 66° @ 0720 PM 1 or 0.04 0.14 7.7 55.2 0
Dimmitt 2NE 07:50 PM 52 45 49 /44 100 / 85 15.3  (E) 12.3 26.7 mph 102° @ 1240 AM 0.8 or 0.03 0.03 6.7 50.4 0
Doole 3WNW 07:50 PM 66 56 61 /53 98 / 80 8.9  (NE) 7.6 30.2 mph 92° @ 1236 PM 1.3 or 0.05 1.04 6.7 46 0
Dora NM 2SW 07:50 PM 58 48 49 /45 100 / 66 14.3  (SE) 10.7 35.2 mph 132° @ 1220 AM 1.5 or 0.06 0.02 9.1 66.4 0
Dozier 3W 07:50 PM 55 47 51 /46 100 / 75 11  (NE) 7.3 26.4 mph 24° @ 1252 PM 0.8 or 0.03 0.10 5.6 43.8 0
Earth 9WSW 07:50 PM 55 49 50 /45 99 / 77 14.4  (E) 12.7 26.5 mph 113° @ 0128 AM 1 or 0.04 0.02 6.1 45.1 0
Endee NM 2SW 07:50 PM 54 47 47 /42 98 / 66 12.8  (E) 9.9 27.6 mph 113° @ 1250 AM 1 or 0.04 0.00 7.1 54.7 0
Estelline 3SSE 07:50 PM 58 48 53 /47 98 / 70 11.4  (E) 7.2 23.6 mph 34° @ 1239 PM 1 or 0.04 0.11 4.3 33 0
Floydada 2NNE 07:50 PM 53 47 50 /46 100 / 87 15.5  (E) 11.9 25.3 mph 36° @ 1125 AM 0.8 or 0.03 0.03 4.4 32.3 0
Fluvanna 3WNW 07:50 PM 55 52 53 /48 98 / 83 11.4  (E) 9.2 24.5 mph 101° @ 0855 AM 1 or 0.04 0.01 5.9 42 0
Fort Chadbourne 07:50 PM 66 54 63 /54 100 / 78 7.9  (E) 4.8 23.6 mph 34° @ 1023 AM 1.3 or 0.05 0.51 7.8 54.9 0
Fort Lancaster 07:50 PM 78 63 67 /58 100 / 65 7.3  (E) 4.5 21.8 mph 88° @ 0432 PM 2.3 or 0.09 0.10 14.3 96 0
Fort Lewis CO 07:50 PM 61 24 24 /9 73 / 16 12.3  (N) 9.8 36.1 mph 275° @ 0212 PM 2 or 0.08 0.00 31.7 255.7 0
Fort McKavett 07:50 PM 64 55 63 /55 100 / 93 5.4  (E) 2.2 21.2 mph 53° @ 1246 PM 0.8 or 0.03 0.09 5.3 35.8 0
Friona 2NE 07:50 PM 52 45 47 /43 98 / 82 14  (E) 11.1 27.2 mph 96° @ 1235 AM 1 or 0.04 0.02 7 52.5 0
Fritch 1WNW 07:50 PM 51 45 48 /37 100 / 69 12.7  (E) 10.7 25.4 mph 77° @ 1223 PM 1 or 0.04 0.00 6.2 48.4 0
Gail 2ESE 07:50 PM 60 53 54 /49 99 / 74 10.2  (E) 6.9 25.2 mph 22° @ 0657 PM 1.3 or 0.05 0.01 7.9 56.6 0
Goodlett 3W 07:50 PM 59 49 52 /47 98 / 73 13.2  (E) 10.2 47.8 mph 330° @ 0945 AM 1.3 or 0.05 0.16 4.9 37.2 0
Goodnight 07:50 PM 50 45 48 /42 98 / 73 12.6  (E) 9.7 24.4 mph 23° @ 0218 PM 0.8 or 0.03 0.10 4.7 36 0
Graham 5SSW 07:50 PM 54 51 54 /49 99 / 83 12.1  (E) 8.9 35.1 mph 67° @ 0653 AM 0.8 or 0.03 1.25 5.4 38.9 0
Guadalupe Mtns Natl Park 07:50 PM 77 53 48 /18 79 / 11 8.6  (NE) 6.4 28.5 mph 282° @ 1107 AM 3 or 0.12 0.00 31.6 213.8 0
Guthrie 10WSW 07:50 PM 57 51 54 /50 99 / 81 10.6  (E) 7.1 41.7 mph 62° @ 0840 AM 0.8 or 0.03 0.73 4.1 30.1 0
Hackberry 2SSE 07:50 PM 57 50 54 /49 99 / 77 12.7  (E) 9.9 36.9 mph 69° @ 0923 AM 0.8 or 0.03 0.28 4 30.1 0
Happy 1E 07:50 PM 52 46 49 /44 100 / 82 13.7  (E) 11.2 23.4 mph 92° @ 0106 AM 0.8 or 0.03 0.04 6.4 48.5 0
Hart 3N 07:50 PM 52 46 49 /45 100 / 84 15.7  (E) 12.3 28.3 mph 101° @ 1225 AM 0.8 or 0.03 0.01 7.3 54.4 0
Haskell 1NW 07:40 PM 57 53 53 /51 100 / 88 10.2  (E) 8.1 22.9 mph 68° @ 1010 AM 0.8 or 0.03 0.86 4.7 34.2 0
Hefner 1SW 07:50 PM 59 52 55 /51 98 / 82 11.4  (E) 7.8 31.4 mph 78° @ 1047 AM 0.8 or 0.03 0.76 4.2 31.1 0
Hereford 2NW 07:50 PM 50 45 47 /43 100 / 84 12.1  (E) 10 22.4 mph 97° @ 1205 AM 0.8 or 0.03 0.06 6.1 46 0
Hobbs NM 5NW 07:50 PM 61 50 55 /47 100 / 75 10.1  (SE) 6.6 43.3 mph 158° @ 0433 AM 1 or 0.04 0.83 8.5 60.2 0
Jayton 1SSE 07:50 PM 57 53 54 /50 100 / 85 10  (E) 7.4 22.8 mph 98° @ 0940 AM 0.8 or 0.03 0.64 5.1 37.1 0
Junction 1SSW 07:50 PM 67 57 62 /57 100 / 81 6.8  (NE) 5.3 19.6 mph 43° @ 0153 PM 1 or 0.04 0.03 5.9 39.2 0
Kent 9E 07:50 PM 89 55 51 /17 82 / 7 10.4  (E) 7.6 33 mph 232° @ 1158 AM 4.3 or 0.17 0.00 30.5 204 5
Knox City 3NW 07:50 PM 58 52 55 /51 98 / 83 9.2  (E) 6.9 29.6 mph 69° @ 0921 AM 0.8 or 0.03 0.91 3.4 24.7 0
Lake Alan Henry 1NW 07:50 PM 56 53 54 /50 100 / 81 9.7  (E) 6.3 22.1 mph 39° @ 0709 PM 0.8 or 0.03 0.49 4.7 34 0
Lake McClellan 2NW 07:50 PM 51 44 48 /42 98 / 70 16.1  (NE) 12.3 26.8 mph 31° @ 0138 PM 0.8 or 0.03 0.12 5.2 40.5 0
Lamesa 2SE 07:50 PM 59 52 54 /49 98 / 80 10.9  (E) 7.4 23.7 mph 26° @ 0645 PM 1.3 or 0.05 0.01 8.3 59.2 0
Lesley 2S 07:50 PM 56 49 52 /46 99 / 71 14.1  (E) 10.2 23.4 mph 43° @ 1126 AM 1 or 0.04 0.02 7 53.8 0
Levelland 4S 07:50 PM 54 50 51 /46 98 / 78 14.6  (SE) 12.3 30.7 mph 116° @ 1221 AM 1 or 0.04 0.02 6.4 46.6 0
Lomax 1SSE 07:50 PM 66 54 55 /51 100 / 67 11.3  (E) 9 25.8 mph 94° @ 0923 AM 1.5 or 0.06 0.00 9.4 65.3 0
Lubbock 3WNW TTU 07:50 PM 54 50 51 /46 99 / 81 10.7  (E) 7.4 27.2 mph 114° @ 1220 AM 1 or 0.04 0.01 5.4 39.8 0
McAdoo 3NNW 07:50 PM 52 47 51 /47 100 / 95 14.6  (E) 10.5 39.5 mph 83° @ 0806 AM 0.5 or 0.02 0.11 4.2 31 0
McCamey 1SSW 07:50 PM 79 60 61 /55 91 / 48 12.1  (E) 10.6 30.2 mph 64° @ 0520 PM 3.3 or 0.13 0.00 24.3 164.9 0
McLean 1E 07:50 PM 51 44 48 /43 100 / 77 12.7  (NE) 9.5 28 mph 27° @ 0100 PM 0.8 or 0.03 0.11 5.5 42.8 0
Memphis 1NE 07:50 PM 56 48 52 /46 97 / 72 12.2  (NE) 9.8 26.3 mph 9° @ 1236 PM 1 or 0.04 0.03 6.4 49.4 0
Menard 2NW 07:50 PM 63 55 62 /55 100 / 92 6.2  (NE) 5.2 18.9 mph 74° @ 0104 PM 0.8 or 0.03 0.11 3.8 25.7 0
Mertzon 3NNE 07:50 PM 68 55 61 /53 100 / 70 8.1  (E) 5.9 21.3 mph 21° @ 0735 PM 1.5 or 0.06 0.18 9.5 65.1 0
Morton 1ENE 07:50 PM 55 50 50 /45 100 / 74 14.2  (SE) 10.5 29.8 mph 113° @ 1255 AM 1 or 0.04 0.01 7 51.2 0
Muleshoe 2SSW 07:50 PM 56 49 50 /45 100 / 73 13.2  (E) 10.6 28.5 mph 122° @ 0145 AM 1.3 or 0.05 0.02 7.1 52.8 0
New Home 07:50 PM 54 51 54 /48 100 / 83 10.9  (E) 8.4 21.3 mph 110° @ 1230 AM 0.8 or 0.03 0.18 5.3 38.6 0
Northfield 1S 07:50 PM 58 48 52 /47 100 / 70 10.7  (E) 7.6 23.2 mph 48° @ 0835 AM 1 or 0.04 0.11 3.7 27.8 0
O'Donnell 1N 07:50 PM 57 52 55 /50 99 / 81 12.1  (E) 9.5 24.1 mph 33° @ 0745 PM 1 or 0.04 0.91 7.2 51.6 0
Odell 4ENE 07:50 PM 61 50 54 /47 98 / 73 12.3  (E) 8.6 41.1 mph 87° @ 1009 AM 1.3 or 0.05 0.19 6.1 46.6 0
Olton 6S 07:50 PM 52 48 50 /45 100 / 80 14.9  (E) 12 27.9 mph 100° @ 1225 AM 0.8 or 0.03 0.02 6.1 45.3 0
Paducah 10SW 07:50 PM 57 49 53 /49 99 / 79 12.9  (E) 8.1 41.7 mph 70° @ 0900 AM 0.8 or 0.03 0.28 4.2 31.1 0
Palo Duro 4E (JA Ranch) 07:50 PM 54 47 50 /45 99 / 74 12.1  (E) 8.8 21.9 mph 25° @ 0430 PM 0.8 or 0.03 0.08 5.7 43.9 0
Palo Duro Canyon SP Floor 07:50 PM 55 49 51 /43 100 / 71 4.6  (SE) 2 24.9 mph 87° @ 0706 AM 0.8 or 0.03 0.05 5.1 39.2 0
Palo Duro Canyon State Park Rim 07:50 PM 51 46 49 /42 100 / 77 8.3  (E) 4.9 19.1 mph 24° @ 1215 PM 0.8 or 0.03 0.06 3.8 28.8 0
Palo Duro Reservoir 1NW 07:50 PM 49 44 46 /39 94 / 70 13.6  (E) 10.5 27.1 mph 99° @ 1203 AM 1 or 0.04 0.00 4.7 38 0
Pampa 2E 07:50 PM 50 43 46 /40 100 / 70 13.2  (NE) 10.2 24.2 mph 24° @ 1235 PM 1 or 0.04 0.09 6.3 49 0
Panhandle 1SSW 07:50 PM 49 43 48 /42 100 / 78 14  (E) 11.2 22.1 mph 42° @ 1235 PM 0.5 or 0.02 0.11 5.3 41.1 0
Plains 3N 07:50 PM 58 51 52 /47 100 / 77 13  (SE) 10.9 29 mph 118° @ 1230 AM 1.3 or 0.05 0.00 8.6 61.7 0
Plainview 1S 07:50 PM 53 47 50 /45 98 / 78 12.2  (E) 9.7 25.2 mph 48° @ 1138 AM 0.8 or 0.03 0.04 5.5 40.7 0
Post 1NE 07:50 PM 55 52 54 /49 100 / 80 10.3  (E) 6.2 23 mph 94° @ 0802 AM 0.8 or 0.03 0.69 4.5 32.5 0
Ralls 1SE 07:50 PM 53 49 52 /47 99 / 84 14.3  (E) 11.4 35.1 mph 97° @ 0733 AM 0.8 or 0.03 0.09 4.8 35.5 0
Reese Center 07:50 PM 54 50 51 /46 98 / 78 14.2  (E) 10.2 29.6 mph 108° @ 1226 AM 0.8 or 0.03 0.01 5.8 42.1 0
Roaring Springs 3N 07:50 PM 54 48 52 /47 99 / 86 12.2  (E) 8.9 38.4 mph 58° @ 0823 AM 0.5 or 0.02 0.25 3.5 25.7 0
Romero 11SSW 07:50 PM 51 44 47 /41 98 / 73 13.7  (E) 10.6 26.5 mph 70° @ 0612 PM 1 or 0.04 0.02 8.5 66.3 0
Rotan 5W 07:50 PM 59 53 56 /51 99 / 82 12.6  (E) 10.4 22.4 mph 62° @ 0837 AM 1 or 0.04 0.06 7.9 56.8 0
San Angelo 7NW 07:50 PM 69 55 57 /51 99 / 65 9.2  (E) 5.8 21 mph 26° @ 0630 PM 1.8 or 0.07 0.08 9.3 63.9 0
Seagraves 1SW 07:50 PM 58 52 55 /48 99 / 80 8.8  (E) 6.3 26.3 mph 51° @ 0740 PM 1 or 0.04 0.57 7.9 56.3 0
Segovia 7SSW 07:50 PM 66 56 62 /56 99 / 81 6.9  (NE) 4.9 19.6 mph 0° @ 0121 PM 1 or 0.04 0.01 6.5 42.9 0
Seminole 2NNE 07:50 PM 59 53 55 /49 99 / 83 12.4  (E) 9.5 26.6 mph 42° @ 0700 PM 1 or 0.04 0.36 6.9 49 0
Seymour 3NW 07:50 PM 59 51 54 /50 99 / 82 10.2  (E) 7.5 26.7 mph 296° @ 1125 AM 0.8 or 0.03 0.96 3.2 24.1 0
Sierra Blanca 1SSE 07:50 PM 85 65 41 /14 30 / 7 10.9  (S) 8.5 29.8 mph 277° @ 1129 AM 4.1 or 0.16 0.00 28.5 189.9 8
Silverton 7ESE 07:50 PM 51 46 48 /45 100 / 83 14.1  (E) 10.6 23 mph 68° @ 1205 AM 0.8 or 0.03 0.06 3.7 27.8 0
Slaton 2NE 07:50 PM 54 50 52 /48 98 / 82 11.3  (E) 9 24.1 mph 94° @ 0712 AM 0.8 or 0.03 0.11 4.6 33.7 0
Smyer 07:50 PM 54 50 51 /46 98 / 78 13  (E) 9.5 25.5 mph 106° @ 1211 AM 0.8 or 0.03 0.04 5.8 41.9 0
Snyder 3E 07:50 PM 59 53 54 /49 100 / 77 11.8  (E) 5.7 26.5 mph 78° @ 0900 AM 1.3 or 0.05 0.02 7 50 0
Snyder 3SSW 07:50 PM 60 53 56 /51 100 / 77 11.7  (E) 7.8 25.8 mph 16° @ 0723 PM 1 or 0.04 0.01 7.8 55.5 0
South Plains 3ENE 07:50 PM 53 46 50 /46 100 / 80 12.9  (E) 10 24.6 mph 50° @ 0826 AM 0.8 or 0.03 0.04 3.8 28.5 0
Spur 1W 07:50 PM 57 51 53 /49 99 / 81 10.5  (E) 8.9 28.3 mph 77° @ 0805 AM 1 or 0.04 1.63 5.7 42 0
St. Lawrence 5SW 07:50 PM 67 55 57 /53 97 / 67 13.1  (E) 11.1 26.3 mph 31° @ 0626 PM 1.8 or 0.07 0.01 10.7 73.9 0
Stamford 5ESE 07:50 PM 59 54 57 /52 100 / 83 10.4  (E) 7.6 24.1 mph 325° @ 0841 AM 0.8 or 0.03 0.68 5.3 38.6 0
Sterling City 4WSW 07:50 PM 68 54 59 /52 100 / 68 7.6  (NE) 5.6 21 mph 20° @ 0536 PM 1.5 or 0.06 0.02 8 55.6 0
Stinnett 1NNW 07:50 PM 48 43 47 /39 100 / 77 13.3  (E) 10.5 22.7 mph 60° @ 0530 AM 0.8 or 0.03 0.01 5.5 43.9 0
Stratford 4WNW 07:50 PM 46 41 45 /38 97 / 80 14.4  (E) 10.9 26.7 mph 86° @ 1106 AM 0.5 or 0.02 0.03 5.1 41.2 0
Sundown 8WSW 07:50 PM 56 50 51 /46 99 / 78 12.4  (SE) 7.4 29.8 mph 107° @ 0520 AM 1 or 0.04 0.04 6.1 43.9 0
Sweetwater 11SW 07:50 PM 61 52 57 /52 99 / 82 11.6  (E) 8.4 25.2 mph 36° @ 0903 AM 1 or 0.04 0.20 5.8 40.8 0
Tahoka 3NNE 07:50 PM 56 51 55 /48 99 / 81 11.7  (E) 8.2 23.8 mph 113° @ 0731 AM 0.8 or 0.03 0.36 5.2 37.3 0
Tarzan 2WNW 07:50 PM 65 54 57 /50 100 / 68 13.7  (E) 9.6 26.7 mph 84° @ 0901 AM 1.5 or 0.06 0.00 9.4 65.9 0
Tatum NM 2SW 07:50 PM 62 51 52 /46 99 / 64 15.2  (SE) 10.5 31.4 mph 134° @ 0145 AM 1.8 or 0.07 0.02 10.5 75 0
Throckmorton 1SW 07:50 PM 59 53 57 /53 100 / 82 7.1  (E) 3.6 24.3 mph 306° @ 0901 AM 0.8 or 0.03 0.43 4.4 31.9 0
Truscott 2SE 07:50 PM 58 51 54 /50 97 / 78 10.2  (E) 7.2 29 mph 82° @ 1008 AM 0.8 or 0.03 0.70 3.6 26.6 0
Tulia 2ENE 07:50 PM 52 47 48 /44 98 / 80 13.8  (E) 11 23.1 mph 84° @ 1230 AM 0.8 or 0.03 0.03 4.9 37 0
Turkey 2WSW 07:50 PM 55 48 50 /46 99 / 75 13.2  (NE) 10.2 21.3 mph 22° @ 1025 AM 1 or 0.04 0.03 3.7 28 0
Umbarger 3NNE 07:50 PM 50 45 48 /43 100 / 83 12.6  (E) 9.9 22.4 mph 37° @ 1225 PM 0.8 or 0.03 0.04 5 38.2 0
Van Horn 3ENE 07:50 PM 89 61 48 /15 59 / 7 8.9  (NE) 6.5 32.2 mph 292° @ 1129 AM 3.8 or 0.15 0.00 31.8 212.1 3
Vega 4E 07:50 PM 49 43 46 /41 99 / 77 13.4  (E) 10.8 25.2 mph 94° @ 1217 AM 0.8 or 0.03 0.02 6.5 49.9 0
Vigo Park 07:50 PM 51 46 49 /45 99 / 80 13.5  (E) 9.4 23.2 mph 34° @ 1236 PM 0.8 or 0.03 0.10 4.8 36.5 0
Wall 2E 07:50 PM 67 55 62 /53 100 / 75 11.3  (E) 9.4 24.9 mph 24° @ 0716 PM 1.3 or 0.05 0.12 6.7 45.8 0
Weinert 2NNE 07:50 PM 58 52 54 /50 95 / 81 9.2  (E) 7.1 23.8 mph 68° @ 0951 AM 0.8 or 0.03 0.77 3.7 27.4 0
Welch 07:50 PM 58 52 58 /50 100 / 81 10.9  (E) 7.8 21.9 mph 40° @ 0729 PM 0.8 or 0.03 0.71 7.3 52.1 0
Wellington 6SE 07:50 PM 57 48 52 /46 97 / 69 15.6  (NE) 12.5 28.5 mph 24° @ 0211 PM 1.3 or 0.05 0.03 6.8 52.6 0
White River Lake 6NW 07:50 PM 55 51 52 /48 99 / 82 12.3  (E) 8.5 36.2 mph 56° @ 0753 AM 0.8 or 0.03 0.12 5 36.8 0
Wolfforth 6SSW 07:50 PM 55 51 53 /47 100 / 80 13.9  (SE) 11.2 31.8 mph 113° @ 0612 AM 0.8 or 0.03 0.04 6.1 44.3 0

WestTexas Mesonet Home    Site Map/Menu  National Weather Service Lubbock   Soil Data   Latest Observation Page   Previous  Date